sensor_id;sensor_type;location;lat;lon;timestamp;P1;durP1;ratioP1;P2;durP2;ratioP2
60225;SDS011;46090;48.436;11.410;2023-05-24T00:02:06;2.13;;;0.52;;
60225;SDS011;46090;48.436;11.410;2023-05-24T00:04:33;1.60;;;0.45;;
60225;SDS011;46090;48.436;11.410;2023-05-24T00:07:00;1.40;;;0.40;;
60225;SDS011;46090;48.436;11.410;2023-05-24T00:09:29;1.95;;;0.45;;
60225;SDS011;46090;48.436;11.410;2023-05-24T00:11:56;2.25;;;0.50;;
60225;SDS011;46090;48.436;11.410;2023-05-24T00:14:23;1.48;;;0.40;;
60225;SDS011;46090;48.436;11.410;2023-05-24T00:16:49;1.90;;;0.50;;
60225;SDS011;46090;48.436;11.410;2023-05-24T00:19:16;1.52;;;0.50;;
60225;SDS011;46090;48.436;11.410;2023-05-24T00:21:47;2.00;;;0.50;;
60225;SDS011;46090;48.436;11.410;2023-05-24T00:24:14;1.40;;;0.43;;
60225;SDS011;46090;48.436;11.410;2023-05-24T00:26:42;1.40;;;0.40;;
60225;SDS011;46090;48.436;11.410;2023-05-24T00:29:09;1.88;;;0.57;;
60225;SDS011;46090;48.436;11.410;2023-05-24T00:31:37;2.63;;;0.50;;
60225;SDS011;46090;48.436;11.410;2023-05-24T00:34:04;1.13;;;0.40;;
60225;SDS011;46090;48.436;11.410;2023-05-24T00:36:30;1.50;;;0.40;;
60225;SDS011;46090;48.436;11.410;2023-05-24T00:38:58;1.08;;;0.40;;
60225;SDS011;46090;48.436;11.410;2023-05-24T00:41:25;1.20;;;0.30;;
60225;SDS011;46090;48.436;11.410;2023-05-24T00:43:52;1.63;;;0.50;;
60225;SDS011;46090;48.436;11.410;2023-05-24T00:46:28;2.83;;;0.60;;
60225;SDS011;46090;48.436;11.410;2023-05-24T00:48:57;1.60;;;0.40;;
60225;SDS011;46090;48.436;11.410;2023-05-24T00:51:24;2.17;;;0.40;;
60225;SDS011;46090;48.436;11.410;2023-05-24T00:53:55;1.35;;;0.43;;
60225;SDS011;46090;48.436;11.410;2023-05-24T00:56:22;1.27;;;0.43;;
60225;SDS011;46090;48.436;11.410;2023-05-24T00:58:49;1.23;;;0.40;;
60225;SDS011;46090;48.436;11.410;2023-05-24T01:01:16;1.30;;;0.35;;
60225;SDS011;46090;48.436;11.410;2023-05-24T01:03:43;1.67;;;0.40;;
60225;SDS011;46090;48.436;11.410;2023-05-24T01:06:11;1.27;;;0.40;;
60225;SDS011;46090;48.436;11.410;2023-05-24T01:17:02;1.67;;;0.50;;
60225;SDS011;46090;48.436;11.410;2023-05-24T01:27:37;1.27;;;0.47;;
60225;SDS011;46090;48.436;11.410;2023-05-24T01:30:03;0.47;;;0.20;;
60225;SDS011;46090;48.436;11.410;2023-05-24T01:32:31;1.23;;;0.40;;
60225;SDS011;46090;48.436;11.410;2023-05-24T01:34:58;0.88;;;0.30;;
60225;SDS011;46090;48.436;11.410;2023-05-24T01:37:25;1.92;;;0.50;;
60225;SDS011;46090;48.436;11.410;2023-05-24T01:39:51;2.33;;;0.50;;
60225;SDS011;46090;48.436;11.410;2023-05-24T01:42:25;3.03;;;0.50;;
60225;SDS011;46090;48.436;11.410;2023-05-24T01:44:59;2.20;;;0.50;;
60225;SDS011;46090;48.436;11.410;2023-05-24T01:47:51;1.80;;;0.40;;
60225;SDS011;46090;48.436;11.410;2023-05-24T01:50:45;1.60;;;0.50;;
60225;SDS011;46090;48.436;11.410;2023-05-24T01:53:16;1.15;;;0.40;;
60225;SDS011;46090;48.436;11.410;2023-05-24T01:55:44;1.20;;;0.40;;
60225;SDS011;46090;48.436;11.410;2023-05-24T01:58:13;2.33;;;0.40;;
60225;SDS011;46090;48.436;11.410;2023-05-24T02:00:41;1.13;;;0.30;;
60225;SDS011;46090;48.436;11.410;2023-05-24T02:03:10;3.30;;;0.60;;
60225;SDS011;46090;48.436;11.410;2023-05-24T02:05:40;1.77;;;0.40;;
60225;SDS011;46090;48.436;11.410;2023-05-24T02:08:07;1.55;;;0.40;;
60225;SDS011;46090;48.436;11.410;2023-05-24T02:10:34;1.00;;;0.30;;
60225;SDS011;46090;48.436;11.410;2023-05-24T02:13:04;1.40;;;0.30;;
60225;SDS011;46090;48.436;11.410;2023-05-24T02:15:31;1.27;;;0.40;;
60225;SDS011;46090;48.436;11.410;2023-05-24T02:17:58;1.05;;;0.40;;
60225;SDS011;46090;48.436;11.410;2023-05-24T02:20:28;1.42;;;0.32;;
60225;SDS011;46090;48.436;11.410;2023-05-24T02:22:56;1.15;;;0.40;;
60225;SDS011;46090;48.436;11.410;2023-05-24T02:25:24;1.63;;;0.50;;
60225;SDS011;46090;48.436;11.410;2023-05-24T02:27:52;1.70;;;0.47;;
60225;SDS011;46090;48.436;11.410;2023-05-24T02:30:18;1.15;;;0.38;;
60225;SDS011;46090;48.436;11.410;2023-05-24T02:32:45;1.30;;;0.40;;
60225;SDS011;46090;48.436;11.410;2023-05-24T02:35:12;1.40;;;0.50;;
60225;SDS011;46090;48.436;11.410;2023-05-24T02:37:39;1.48;;;0.40;;
60225;SDS011;46090;48.436;11.410;2023-05-24T02:40:06;1.30;;;0.40;;
60225;SDS011;46090;48.436;11.410;2023-05-24T02:42:33;1.73;;;0.30;;
60225;SDS011;46090;48.436;11.410;2023-05-24T02:45:00;1.08;;;0.30;;
60225;SDS011;46090;48.436;11.410;2023-05-24T02:47:27;1.02;;;0.30;;
60225;SDS011;46090;48.436;11.410;2023-05-24T02:49:54;1.13;;;0.38;;
60225;SDS011;46090;48.436;11.410;2023-05-24T02:52:21;0.68;;;0.22;;
60225;SDS011;46090;48.436;11.410;2023-05-24T02:54:48;1.60;;;0.40;;
60225;SDS011;46090;48.436;11.410;2023-05-24T02:57:17;1.38;;;0.40;;
60225;SDS011;46090;48.436;11.410;2023-05-24T02:59:44;1.55;;;0.40;;
60225;SDS011;46090;48.436;11.410;2023-05-24T03:02:11;0.88;;;0.30;;
60225;SDS011;46090;48.436;11.410;2023-05-24T03:04:41;1.58;;;0.40;;
60225;SDS011;46090;48.436;11.410;2023-05-24T03:07:10;1.20;;;0.30;;
60225;SDS011;46090;48.436;11.410;2023-05-24T03:09:37;1.10;;;0.30;;
60225;SDS011;46090;48.436;11.410;2023-05-24T03:12:04;1.20;;;0.40;;
60225;SDS011;46090;48.436;11.410;2023-05-24T03:14:32;0.88;;;0.30;;
60225;SDS011;46090;48.436;11.410;2023-05-24T03:16:59;1.25;;;0.38;;
60225;SDS011;46090;48.436;11.410;2023-05-24T03:19:26;1.50;;;0.40;;
60225;SDS011;46090;48.436;11.410;2023-05-24T03:21:53;1.30;;;0.40;;
60225;SDS011;46090;48.436;11.410;2023-05-24T03:24:19;1.05;;;0.35;;
60225;SDS011;46090;48.436;11.410;2023-05-24T03:26:47;1.00;;;0.30;;
60225;SDS011;46090;48.436;11.410;2023-05-24T03:29:15;1.52;;;0.50;;
60225;SDS011;46090;48.436;11.410;2023-05-24T03:31:42;1.40;;;0.38;;
60225;SDS011;46090;48.436;11.410;2023-05-24T03:34:09;0.90;;;0.30;;
60225;SDS011;46090;48.436;11.410;2023-05-24T03:36:37;1.05;;;0.38;;
60225;SDS011;46090;48.436;11.410;2023-05-24T03:39:04;1.45;;;0.52;;
60225;SDS011;46090;48.436;11.410;2023-05-24T03:41:39;1.40;;;0.30;;
60225;SDS011;46090;48.436;11.410;2023-05-24T03:44:06;1.33;;;0.40;;
60225;SDS011;46090;48.436;11.410;2023-05-24T03:46:34;1.33;;;0.40;;
60225;SDS011;46090;48.436;11.410;2023-05-24T03:49:01;1.23;;;0.40;;
60225;SDS011;46090;48.436;11.410;2023-05-24T03:51:28;1.67;;;0.30;;
60225;SDS011;46090;48.436;11.410;2023-05-24T03:53:55;0.93;;;0.35;;
60225;SDS011;46090;48.436;11.410;2023-05-24T03:56:24;0.95;;;0.30;;
60225;SDS011;46090;48.436;11.410;2023-05-24T03:58:51;1.05;;;0.40;;
60225;SDS011;46090;48.436;11.410;2023-05-24T04:01:18;1.08;;;0.30;;
60225;SDS011;46090;48.436;11.410;2023-05-24T04:03:59;0.73;;;0.30;;
60225;SDS011;46090;48.436;11.410;2023-05-24T04:06:27;1.15;;;0.32;;
60225;SDS011;46090;48.436;11.410;2023-05-24T04:08:56;1.00;;;0.30;;
60225;SDS011;46090;48.436;11.410;2023-05-24T04:11:23;1.40;;;0.40;;
60225;SDS011;46090;48.436;11.410;2023-05-24T04:13:54;1.45;;;0.30;;
60225;SDS011;46090;48.436;11.410;2023-05-24T04:16:21;1.50;;;0.40;;
60225;SDS011;46090;48.436;11.410;2023-05-24T04:18:53;1.75;;;0.40;;
60225;SDS011;46090;48.436;11.410;2023-05-24T04:21:20;1.83;;;0.47;;
60225;SDS011;46090;48.436;11.410;2023-05-24T04:23:48;0.88;;;0.30;;
60225;SDS011;46090;48.436;11.410;2023-05-24T04:26:14;1.55;;;0.40;;
60225;SDS011;46090;48.436;11.410;2023-05-24T04:28:41;1.10;;;0.38;;
60225;SDS011;46090;48.436;11.410;2023-05-24T04:31:08;1.95;;;0.63;;
60225;SDS011;46090;48.436;11.410;2023-05-24T04:33:35;1.50;;;0.40;;
60225;SDS011;46090;48.436;11.410;2023-05-24T04:36:02;2.45;;;0.50;;
60225;SDS011;46090;48.436;11.410;2023-05-24T04:38:29;2.13;;;0.68;;
60225;SDS011;46090;48.436;11.410;2023-05-24T04:40:57;1.60;;;0.50;;
60225;SDS011;46090;48.436;11.410;2023-05-24T04:43:25;2.35;;;0.47;;
60225;SDS011;46090;48.436;11.410;2023-05-24T04:45:52;2.85;;;0.50;;
60225;SDS011;46090;48.436;11.410;2023-05-24T04:48:20;2.42;;;0.50;;
60225;SDS011;46090;48.436;11.410;2023-05-24T04:50:53;1.88;;;0.55;;
60225;SDS011;46090;48.436;11.410;2023-05-24T04:53:20;2.17;;;0.55;;
60225;SDS011;46090;48.436;11.410;2023-05-24T04:55:47;4.72;;;0.52;;
60225;SDS011;46090;48.436;11.410;2023-05-24T04:58:14;3.45;;;0.75;;
60225;SDS011;46090;48.436;11.410;2023-05-24T05:00:41;2.67;;;0.43;;
60225;SDS011;46090;48.436;11.410;2023-05-24T05:03:08;3.70;;;0.90;;
60225;SDS011;46090;48.436;11.410;2023-05-24T05:05:35;1.77;;;0.60;;
60225;SDS011;46090;48.436;11.410;2023-05-24T05:08:02;2.78;;;0.60;;
60225;SDS011;46090;48.436;11.410;2023-05-24T05:10:29;1.42;;;0.50;;
60225;SDS011;46090;48.436;11.410;2023-05-24T05:12:56;1.40;;;0.50;;
60225;SDS011;46090;48.436;11.410;2023-05-24T05:15:23;2.92;;;0.57;;
60225;SDS011;46090;48.436;11.410;2023-05-24T05:17:49;2.63;;;0.68;;
60225;SDS011;46090;48.436;11.410;2023-05-24T05:20:16;2.25;;;0.70;;
60225;SDS011;46090;48.436;11.410;2023-05-24T05:22:46;2.10;;;0.57;;
60225;SDS011;46090;48.436;11.410;2023-05-24T05:25:13;2.80;;;0.57;;
60225;SDS011;46090;48.436;11.410;2023-05-24T05:27:40;2.47;;;0.70;;
60225;SDS011;46090;48.436;11.410;2023-05-24T05:30:07;2.22;;;0.60;;
60225;SDS011;46090;48.436;11.410;2023-05-24T05:32:34;2.22;;;0.70;;
60225;SDS011;46090;48.436;11.410;2023-05-24T05:35:02;1.63;;;0.60;;
60225;SDS011;46090;48.436;11.410;2023-05-24T05:37:29;2.95;;;0.57;;
60225;SDS011;46090;48.436;11.410;2023-05-24T05:39:56;1.83;;;0.70;;
60225;SDS011;46090;48.436;11.410;2023-05-24T05:42:23;2.00;;;0.80;;
60225;SDS011;46090;48.436;11.410;2023-05-24T05:44:50;2.60;;;0.63;;
60225;SDS011;46090;48.436;11.410;2023-05-24T05:47:18;1.88;;;0.63;;
60225;SDS011;46090;48.436;11.410;2023-05-24T05:49:45;1.90;;;0.50;;
60225;SDS011;46090;48.436;11.410;2023-05-24T05:52:11;4.15;;;0.90;;
60225;SDS011;46090;48.436;11.410;2023-05-24T05:54:38;3.08;;;0.60;;
60225;SDS011;46090;48.436;11.410;2023-05-24T05:57:05;4.32;;;1.00;;
60225;SDS011;46090;48.436;11.410;2023-05-24T05:59:35;2.60;;;0.73;;
60225;SDS011;46090;48.436;11.410;2023-05-24T06:02:03;1.73;;;0.60;;
60225;SDS011;46090;48.436;11.410;2023-05-24T06:04:32;2.70;;;0.80;;
60225;SDS011;46090;48.436;11.410;2023-05-24T06:06:58;2.40;;;0.88;;
60225;SDS011;46090;48.436;11.410;2023-05-24T06:09:25;2.40;;;0.60;;
60225;SDS011;46090;48.436;11.410;2023-05-24T06:11:52;3.33;;;1.00;;
60225;SDS011;46090;48.436;11.410;2023-05-24T06:14:18;4.00;;;0.85;;
60225;SDS011;46090;48.436;11.410;2023-05-24T06:16:47;1.52;;;0.70;;
60225;SDS011;46090;48.436;11.410;2023-05-24T06:19:14;4.00;;;0.70;;
60225;SDS011;46090;48.436;11.410;2023-05-24T06:21:42;4.68;;;1.13;;
60225;SDS011;46090;48.436;11.410;2023-05-24T06:24:14;5.25;;;1.10;;
60225;SDS011;46090;48.436;11.410;2023-05-24T06:26:41;6.78;;;1.70;;
60225;SDS011;46090;48.436;11.410;2023-05-24T06:29:08;7.07;;;1.30;;
60225;SDS011;46090;48.436;11.410;2023-05-24T06:31:35;6.05;;;1.50;;
60225;SDS011;46090;48.436;11.410;2023-05-24T06:34:01;6.22;;;1.10;;
60225;SDS011;46090;48.436;11.410;2023-05-24T06:36:30;3.40;;;1.10;;
60225;SDS011;46090;48.436;11.410;2023-05-24T06:39:01;4.80;;;0.95;;
60225;SDS011;46090;48.436;11.410;2023-05-24T06:41:29;3.83;;;1.20;;
60225;SDS011;46090;48.436;11.410;2023-05-24T06:43:55;4.15;;;1.10;;
60225;SDS011;46090;48.436;11.410;2023-05-24T06:46:22;4.78;;;0.98;;
60225;SDS011;46090;48.436;11.410;2023-05-24T06:48:49;4.53;;;1.20;;
60225;SDS011;46090;48.436;11.410;2023-05-24T06:51:16;4.82;;;0.90;;
60225;SDS011;46090;48.436;11.410;2023-05-24T06:53:42;3.42;;;1.15;;
60225;SDS011;46090;48.436;11.410;2023-05-24T06:56:09;2.40;;;1.10;;
60225;SDS011;46090;48.436;11.410;2023-05-24T06:58:36;4.50;;;1.15;;
60225;SDS011;46090;48.436;11.410;2023-05-24T07:01:03;3.85;;;1.30;;
60225;SDS011;46090;48.436;11.410;2023-05-24T07:03:30;4.57;;;1.00;;
60225;SDS011;46090;48.436;11.410;2023-05-24T07:05:57;5.13;;;1.38;;
60225;SDS011;46090;48.436;11.410;2023-05-24T07:08:24;3.50;;;1.00;;
60225;SDS011;46090;48.436;11.410;2023-05-24T07:10:51;3.95;;;1.38;;
60225;SDS011;46090;48.436;11.410;2023-05-24T07:13:19;3.97;;;1.10;;
60225;SDS011;46090;48.436;11.410;2023-05-24T07:15:45;4.05;;;1.48;;
60225;SDS011;46090;48.436;11.410;2023-05-24T07:18:12;2.45;;;0.98;;
60225;SDS011;46090;48.436;11.410;2023-05-24T07:20:39;4.05;;;0.93;;
60225;SDS011;46090;48.436;11.410;2023-05-24T07:23:07;3.95;;;0.95;;
60225;SDS011;46090;48.436;11.410;2023-05-24T07:25:33;4.38;;;1.23;;
60225;SDS011;46090;48.436;11.410;2023-05-24T07:28:00;2.97;;;0.90;;
60225;SDS011;46090;48.436;11.410;2023-05-24T07:30:27;3.53;;;1.42;;
60225;SDS011;46090;48.436;11.410;2023-05-24T07:32:58;3.55;;;1.13;;
60225;SDS011;46090;48.436;11.410;2023-05-24T07:35:25;3.78;;;1.13;;
60225;SDS011;46090;48.436;11.410;2023-05-24T07:37:53;2.85;;;0.90;;
60225;SDS011;46090;48.436;11.410;2023-05-24T07:40:20;4.10;;;1.40;;
60225;SDS011;46090;48.436;11.410;2023-05-24T07:42:48;2.67;;;1.08;;
60225;SDS011;46090;48.436;11.410;2023-05-24T07:45:15;4.70;;;1.60;;
60225;SDS011;46090;48.436;11.410;2023-05-24T07:47:41;5.40;;;1.35;;
60225;SDS011;46090;48.436;11.410;2023-05-24T07:50:08;4.88;;;1.23;;
60225;SDS011;46090;48.436;11.410;2023-05-24T07:52:35;2.95;;;1.10;;
60225;SDS011;46090;48.436;11.410;2023-05-24T07:55:04;3.10;;;1.17;;
60225;SDS011;46090;48.436;11.410;2023-05-24T07:57:31;4.00;;;1.30;;
60225;SDS011;46090;48.436;11.410;2023-05-24T07:59:58;4.85;;;1.30;;
60225;SDS011;46090;48.436;11.410;2023-05-24T08:02:36;3.03;;;1.02;;
60225;SDS011;46090;48.436;11.410;2023-05-24T08:05:03;6.22;;;1.48;;
60225;SDS011;46090;48.436;11.410;2023-05-24T08:07:30;3.83;;;1.35;;
60225;SDS011;46090;48.436;11.410;2023-05-24T08:09:57;3.22;;;1.20;;
60225;SDS011;46090;48.436;11.410;2023-05-24T08:12:24;3.28;;;1.13;;
60225;SDS011;46090;48.436;11.410;2023-05-24T08:14:51;3.15;;;1.15;;
60225;SDS011;46090;48.436;11.410;2023-05-24T08:17:18;2.67;;;0.98;;
60225;SDS011;46090;48.436;11.410;2023-05-24T08:19:45;3.03;;;1.17;;
60225;SDS011;46090;48.436;11.410;2023-05-24T08:22:12;2.95;;;1.13;;
60225;SDS011;46090;48.436;11.410;2023-05-24T08:24:39;2.88;;;1.20;;
60225;SDS011;46090;48.436;11.410;2023-05-24T08:27:05;3.63;;;1.20;;
60225;SDS011;46090;48.436;11.410;2023-05-24T08:29:33;3.00;;;1.30;;
60225;SDS011;46090;48.436;11.410;2023-05-24T08:32:00;4.30;;;1.60;;
60225;SDS011;46090;48.436;11.410;2023-05-24T08:34:28;4.20;;;1.27;;
60225;SDS011;46090;48.436;11.410;2023-05-24T08:36:55;3.40;;;1.35;;
60225;SDS011;46090;48.436;11.410;2023-05-24T08:39:21;2.75;;;1.08;;
60225;SDS011;46090;48.436;11.410;2023-05-24T08:41:49;5.75;;;1.27;;
60225;SDS011;46090;48.436;11.410;2023-05-24T08:47:05;3.63;;;1.20;;
60225;SDS011;46090;48.436;11.410;2023-05-24T08:49:32;2.40;;;0.90;;
60225;SDS011;46090;48.436;11.410;2023-05-24T08:51:59;3.13;;;1.13;;
60225;SDS011;46090;48.436;11.410;2023-05-24T08:54:27;4.03;;;1.23;;
60225;SDS011;46090;48.436;11.410;2023-05-24T08:56:54;3.60;;;1.30;;
60225;SDS011;46090;48.436;11.410;2023-05-24T08:59:21;4.70;;;1.33;;
60225;SDS011;46090;48.436;11.410;2023-05-24T09:01:51;3.95;;;1.35;;
60225;SDS011;46090;48.436;11.410;2023-05-24T09:04:20;2.85;;;1.15;;
60225;SDS011;46090;48.436;11.410;2023-05-24T09:06:48;3.47;;;1.10;;
60225;SDS011;46090;48.436;11.410;2023-05-24T09:09:15;3.05;;;1.02;;
60225;SDS011;46090;48.436;11.410;2023-05-24T09:11:44;3.15;;;1.05;;
60225;SDS011;46090;48.436;11.410;2023-05-24T09:14:12;2.85;;;1.10;;
60225;SDS011;46090;48.436;11.410;2023-05-24T09:16:39;2.80;;;1.20;;
60225;SDS011;46090;48.436;11.410;2023-05-24T09:19:07;2.38;;;1.05;;
60225;SDS011;46090;48.436;11.410;2023-05-24T09:21:33;3.63;;;1.10;;
60225;SDS011;46090;48.436;11.410;2023-05-24T09:24:00;3.30;;;1.20;;
60225;SDS011;46090;48.436;11.410;2023-05-24T09:26:27;3.08;;;1.23;;
60225;SDS011;46090;48.436;11.410;2023-05-24T09:28:57;2.53;;;1.10;;
60225;SDS011;46090;48.436;11.410;2023-05-24T09:31:33;3.55;;;1.30;;
60225;SDS011;46090;48.436;11.410;2023-05-24T09:34:01;4.32;;;1.15;;
60225;SDS011;46090;48.436;11.410;2023-05-24T09:36:28;2.50;;;1.00;;
60225;SDS011;46090;48.436;11.410;2023-05-24T09:39:05;3.03;;;1.10;;
60225;SDS011;46090;48.436;11.410;2023-05-24T09:41:35;3.13;;;1.10;;
60225;SDS011;46090;48.436;11.410;2023-05-24T09:44:02;3.22;;;1.08;;
60225;SDS011;46090;48.436;11.410;2023-05-24T09:46:36;3.15;;;1.25;;
60225;SDS011;46090;48.436;11.410;2023-05-24T09:49:06;3.95;;;1.02;;
60225;SDS011;46090;48.436;11.410;2023-05-24T09:51:36;3.25;;;1.27;;
60225;SDS011;46090;48.436;11.410;2023-05-24T09:54:04;2.75;;;1.20;;
60225;SDS011;46090;48.436;11.410;2023-05-24T09:56:34;2.85;;;1.20;;
60225;SDS011;46090;48.436;11.410;2023-05-24T09:59:07;2.83;;;0.90;;
60225;SDS011;46090;48.436;11.410;2023-05-24T10:01:34;3.33;;;1.10;;
60225;SDS011;46090;48.436;11.410;2023-05-24T10:04:01;3.25;;;1.00;;
60225;SDS011;46090;48.436;11.410;2023-05-24T10:06:35;3.00;;;1.08;;
60225;SDS011;46090;48.436;11.410;2023-05-24T10:09:03;2.40;;;0.82;;
60225;SDS011;46090;48.436;11.410;2023-05-24T10:11:35;3.55;;;1.10;;
60225;SDS011;46090;48.436;11.410;2023-05-24T10:14:03;4.68;;;1.33;;
60225;SDS011;46090;48.436;11.410;2023-05-24T10:16:31;2.10;;;0.90;;
60225;SDS011;46090;48.436;11.410;2023-05-24T10:18:58;3.28;;;0.95;;
60225;SDS011;46090;48.436;11.410;2023-05-24T10:21:24;3.67;;;1.30;;
60225;SDS011;46090;48.436;11.410;2023-05-24T10:23:56;3.58;;;1.08;;
60225;SDS011;46090;48.436;11.410;2023-05-24T10:26:23;2.53;;;1.05;;
60225;SDS011;46090;48.436;11.410;2023-05-24T10:28:54;2.95;;;0.95;;
60225;SDS011;46090;48.436;11.410;2023-05-24T10:31:24;3.08;;;0.90;;
60225;SDS011;46090;48.436;11.410;2023-05-24T10:33:55;9.68;;;1.20;;
60225;SDS011;46090;48.436;11.410;2023-05-24T10:36:33;3.30;;;0.95;;
60225;SDS011;46090;48.436;11.410;2023-05-24T10:39:00;2.75;;;0.98;;
60225;SDS011;46090;48.436;11.410;2023-05-24T10:41:27;3.85;;;1.15;;
60225;SDS011;46090;48.436;11.410;2023-05-24T10:43:54;4.45;;;1.23;;
60225;SDS011;46090;48.436;11.410;2023-05-24T10:46:35;4.45;;;1.20;;
60225;SDS011;46090;48.436;11.410;2023-05-24T10:49:02;4.10;;;1.10;;
60225;SDS011;46090;48.436;11.410;2023-05-24T10:51:34;4.63;;;1.20;;
60225;SDS011;46090;48.436;11.410;2023-05-24T10:56:40;4.97;;;1.15;;
60225;SDS011;46090;48.436;11.410;2023-05-24T11:02:06;5.72;;;1.02;;
60225;SDS011;46090;48.436;11.410;2023-05-24T11:04:36;4.13;;;1.23;;
60225;SDS011;46090;48.436;11.410;2023-05-24T11:07:09;4.78;;;1.40;;
60225;SDS011;46090;48.436;11.410;2023-05-24T11:09:37;3.92;;;1.38;;
60225;SDS011;46090;48.436;11.410;2023-05-24T11:12:15;4.15;;;1.20;;
60225;SDS011;46090;48.436;11.410;2023-05-24T11:14:49;3.63;;;1.08;;
60225;SDS011;46090;48.436;11.410;2023-05-24T11:17:21;3.83;;;1.15;;
60225;SDS011;46090;48.436;11.410;2023-05-24T11:19:49;6.78;;;1.60;;
60225;SDS011;46090;48.436;11.410;2023-05-24T11:22:19;5.65;;;1.25;;
60225;SDS011;46090;48.436;11.410;2023-05-24T11:24:46;4.65;;;0.93;;
60225;SDS011;46090;48.436;11.410;2023-05-24T11:27:13;4.60;;;1.20;;
60225;SDS011;46090;48.436;11.410;2023-05-24T11:29:41;2.65;;;0.95;;
60225;SDS011;46090;48.436;11.410;2023-05-24T11:32:15;3.97;;;1.17;;
60225;SDS011;46090;48.436;11.410;2023-05-24T11:34:45;4.80;;;1.00;;
60225;SDS011;46090;48.436;11.410;2023-05-24T11:37:12;4.88;;;1.27;;
60225;SDS011;46090;48.436;11.410;2023-05-24T11:39:42;4.45;;;1.10;;
60225;SDS011;46090;48.436;11.410;2023-05-24T11:42:09;4.53;;;1.13;;
60225;SDS011;46090;48.436;11.410;2023-05-24T11:44:36;3.17;;;0.95;;
60225;SDS011;46090;48.436;11.410;2023-05-24T11:47:04;3.00;;;0.88;;
60225;SDS011;46090;48.436;11.410;2023-05-24T11:49:32;2.42;;;0.82;;
60225;SDS011;46090;48.436;11.410;2023-05-24T11:51:59;3.00;;;0.90;;
60225;SDS011;46090;48.436;11.410;2023-05-24T11:54:27;1.75;;;0.80;;
60225;SDS011;46090;48.436;11.410;2023-05-24T11:56:54;3.42;;;0.90;;
60225;SDS011;46090;48.436;11.410;2023-05-24T11:59:24;3.30;;;0.82;;
60225;SDS011;46090;48.436;11.410;2023-05-24T12:01:58;2.72;;;0.93;;
60225;SDS011;46090;48.436;11.410;2023-05-24T12:04:26;4.73;;;1.10;;
60225;SDS011;46090;48.436;11.410;2023-05-24T12:06:54;2.85;;;0.80;;
60225;SDS011;46090;48.436;11.410;2023-05-24T12:09:21;2.78;;;0.90;;
60225;SDS011;46090;48.436;11.410;2023-05-24T12:11:49;3.10;;;0.88;;
60225;SDS011;46090;48.436;11.410;2023-05-24T12:14:17;1.80;;;0.80;;
60225;SDS011;46090;48.436;11.410;2023-05-24T12:16:53;4.63;;;1.20;;
60225;SDS011;46090;48.436;11.410;2023-05-24T12:19:22;2.90;;;1.02;;
60225;SDS011;46090;48.436;11.410;2023-05-24T12:21:55;5.30;;;1.27;;
60225;SDS011;46090;48.436;11.410;2023-05-24T12:24:23;4.28;;;0.95;;
60225;SDS011;46090;48.436;11.410;2023-05-24T12:26:51;6.70;;;1.63;;
60225;SDS011;46090;48.436;11.410;2023-05-24T12:29:18;5.25;;;1.30;;
60225;SDS011;46090;48.436;11.410;2023-05-24T12:31:48;5.57;;;1.23;;
60225;SDS011;46090;48.436;11.410;2023-05-24T12:34:16;3.58;;;1.17;;
60225;SDS011;46090;48.436;11.410;2023-05-24T12:36:44;5.95;;;1.50;;
60225;SDS011;46090;48.436;11.410;2023-05-24T12:39:15;4.47;;;1.23;;
60225;SDS011;46090;48.436;11.410;2023-05-24T12:41:49;4.17;;;1.47;;
60225;SDS011;46090;48.436;11.410;2023-05-24T12:44:21;4.85;;;1.30;;
60225;SDS011;46090;48.436;11.410;2023-05-24T12:46:49;4.13;;;1.13;;
60225;SDS011;46090;48.436;11.410;2023-05-24T12:49:18;5.22;;;1.15;;
60225;SDS011;46090;48.436;11.410;2023-05-24T12:51:45;6.63;;;1.20;;
60225;SDS011;46090;48.436;11.410;2023-05-24T12:54:16;4.60;;;1.27;;
60225;SDS011;46090;48.436;11.410;2023-05-24T12:56:44;5.72;;;1.40;;
60225;SDS011;46090;48.436;11.410;2023-05-24T12:59:11;5.03;;;1.17;;
60225;SDS011;46090;48.436;11.410;2023-05-24T13:01:38;4.22;;;1.27;;
60225;SDS011;46090;48.436;11.410;2023-05-24T13:04:05;5.70;;;1.17;;
60225;SDS011;46090;48.436;11.410;2023-05-24T13:06:31;4.28;;;1.30;;
60225;SDS011;46090;48.436;11.410;2023-05-24T13:08:58;3.88;;;1.10;;
60225;SDS011;46090;48.436;11.410;2023-05-24T13:11:25;4.97;;;1.27;;
60225;SDS011;46090;48.436;11.410;2023-05-24T13:13:52;3.92;;;1.27;;
60225;SDS011;46090;48.436;11.410;2023-05-24T13:16:19;4.20;;;1.15;;
60225;SDS011;46090;48.436;11.410;2023-05-24T13:18:46;5.97;;;1.23;;
60225;SDS011;46090;48.436;11.410;2023-05-24T13:21:13;4.60;;;1.20;;
60225;SDS011;46090;48.436;11.410;2023-05-24T13:23:40;3.97;;;1.00;;
60225;SDS011;46090;48.436;11.410;2023-05-24T13:26:08;5.25;;;1.73;;
60225;SDS011;46090;48.436;11.410;2023-05-24T13:28:35;10.18;;;2.38;;
60225;SDS011;46090;48.436;11.410;2023-05-24T13:31:02;23.25;;;4.00;;
60225;SDS011;46090;48.436;11.410;2023-05-24T13:33:30;17.83;;;2.85;;
60225;SDS011;46090;48.436;11.410;2023-05-24T13:35:59;14.02;;;2.35;;
60225;SDS011;46090;48.436;11.410;2023-05-24T13:38:27;21.40;;;2.83;;
60225;SDS011;46090;48.436;11.410;2023-05-24T13:40:53;12.27;;;2.45;;
60225;SDS011;46090;48.436;11.410;2023-05-24T13:43:20;12.90;;;2.13;;
60225;SDS011;46090;48.436;11.410;2023-05-24T13:45:47;9.07;;;2.53;;
60225;SDS011;46090;48.436;11.410;2023-05-24T13:48:14;12.50;;;2.50;;
60225;SDS011;46090;48.436;11.410;2023-05-24T13:50:40;9.25;;;1.90;;
60225;SDS011;46090;48.436;11.410;2023-05-24T13:53:08;10.68;;;2.20;;
60225;SDS011;46090;48.436;11.410;2023-05-24T13:55:35;7.55;;;1.70;;
60225;SDS011;46090;48.436;11.410;2023-05-24T13:58:03;11.98;;;2.80;;
60225;SDS011;46090;48.436;11.410;2023-05-24T14:00:30;9.38;;;1.65;;
60225;SDS011;46090;48.436;11.410;2023-05-24T14:02:57;11.90;;;2.05;;
60225;SDS011;46090;48.436;11.410;2023-05-24T14:05:24;10.95;;;2.00;;
60225;SDS011;46090;48.436;11.410;2023-05-24T14:07:54;10.32;;;2.10;;
60225;SDS011;46090;48.436;11.410;2023-05-24T14:10:29;9.35;;;1.92;;
60225;SDS011;46090;48.436;11.410;2023-05-24T14:12:56;10.32;;;2.00;;
60225;SDS011;46090;48.436;11.410;2023-05-24T14:15:42;10.68;;;2.10;;
60225;SDS011;46090;48.436;11.410;2023-05-24T14:18:11;9.95;;;2.50;;
60225;SDS011;46090;48.436;11.410;2023-05-24T14:20:38;10.57;;;2.05;;
60225;SDS011;46090;48.436;11.410;2023-05-24T14:23:06;10.55;;;1.95;;
60225;SDS011;46090;48.436;11.410;2023-05-24T14:25:33;7.20;;;1.95;;
60225;SDS011;46090;48.436;11.410;2023-05-24T14:28:00;6.00;;;1.80;;
60225;SDS011;46090;48.436;11.410;2023-05-24T14:30:26;8.70;;;1.92;;
60225;SDS011;46090;48.436;11.410;2023-05-24T14:32:53;11.15;;;2.35;;
60225;SDS011;46090;48.436;11.410;2023-05-24T14:35:20;9.43;;;1.80;;
60225;SDS011;46090;48.436;11.410;2023-05-24T14:37:46;8.63;;;1.95;;
60225;SDS011;46090;48.436;11.410;2023-05-24T14:40:13;5.63;;;1.60;;
60225;SDS011;46090;48.436;11.410;2023-05-24T14:42:43;9.15;;;1.88;;
60225;SDS011;46090;48.436;11.410;2023-05-24T14:45:10;8.88;;;2.00;;
60225;SDS011;46090;48.436;11.410;2023-05-24T14:47:37;7.18;;;1.80;;
60225;SDS011;46090;48.436;11.410;2023-05-24T14:50:04;13.73;;;2.00;;
60225;SDS011;46090;48.436;11.410;2023-05-24T14:52:32;7.57;;;1.80;;
60225;SDS011;46090;48.436;11.410;2023-05-24T14:54:58;7.50;;;2.28;;
60225;SDS011;46090;48.436;11.410;2023-05-24T14:57:25;7.50;;;1.77;;
60225;SDS011;46090;48.436;11.410;2023-05-24T14:59:52;10.98;;;1.80;;
60225;SDS011;46090;48.436;11.410;2023-05-24T15:02:20;8.18;;;2.15;;
60225;SDS011;46090;48.436;11.410;2023-05-24T15:04:47;6.75;;;1.85;;